createdAt,value
2019-06-26T00:02:16.251Z,4.97
2019-06-26T00:04:44.967Z,4.92
2019-06-26T00:07:13.791Z,4.65
2019-06-26T00:09:42.527Z,4.40
2019-06-26T00:12:11.251Z,4.55
2019-06-26T00:14:39.943Z,4.78
2019-06-26T00:17:08.679Z,4.50
2019-06-26T00:19:37.393Z,4.53
2019-06-26T00:22:05.996Z,4.62
2019-06-26T00:24:34.753Z,4.72
2019-06-26T00:27:03.449Z,4.72
2019-06-26T00:29:32.090Z,4.97
2019-06-26T00:32:00.829Z,5.00
2019-06-26T00:34:29.466Z,5.30
2019-06-26T00:36:58.192Z,4.45
2019-06-26T00:39:26.785Z,4.85
2019-06-26T00:41:55.428Z,4.33
2019-06-26T00:44:24.059Z,4.65
2019-06-26T00:46:52.875Z,4.33
2019-06-26T00:49:21.503Z,4.62
2019-06-26T00:51:50.223Z,5.10
2019-06-26T00:54:18.962Z,4.87
2019-06-26T00:56:47.676Z,5.40
2019-06-26T00:59:16.316Z,4.80
2019-06-26T01:01:44.987Z,4.85
2019-06-26T01:04:15.194Z,5.10
2019-06-26T01:06:43.913Z,4.95
2019-06-26T01:09:15.598Z,5.20
2019-06-26T01:11:44.292Z,5.17
2019-06-26T01:14:13.002Z,5.22
2019-06-26T01:16:41.665Z,4.50
2019-06-26T01:19:10.324Z,5.15
2019-06-26T01:21:39.016Z,4.85
2019-06-26T01:24:07.777Z,5.53
2019-06-26T01:26:36.600Z,4.80
2019-06-26T01:29:05.508Z,4.92
2019-06-26T01:31:34.180Z,4.90
2019-06-26T01:34:02.894Z,5.30
2019-06-26T01:36:31.536Z,5.00
2019-06-26T01:39:00.211Z,4.53
2019-06-26T01:41:28.969Z,5.03
2019-06-26T01:44:10.577Z,5.35
2019-06-26T01:46:28.185Z,4.67
2019-06-26T01:48:56.830Z,5.42
2019-06-26T01:51:25.532Z,5.22
2019-06-26T01:53:54.276Z,5.33
2019-06-26T01:56:22.984Z,5.08
2019-06-26T01:58:51.632Z,5.40
2019-06-26T02:01:20.666Z,5.45
2019-06-26T02:03:49.311Z,5.40
2019-06-26T02:06:18.024Z,5.00
2019-06-26T02:08:46.619Z,5.12
2019-06-26T02:11:15.261Z,5.53
2019-06-26T02:13:43.908Z,5.30
2019-06-26T02:16:12.578Z,5.45
2019-06-26T02:18:49.039Z,5.90
2019-06-26T02:21:17.790Z,5.28
2019-06-26T02:23:46.513Z,5.45
2019-06-26T02:26:15.732Z,5.78
2019-06-26T02:28:44.467Z,5.55
2019-06-26T02:31:13.176Z,5.80
2019-06-26T02:33:41.751Z,5.10
2019-06-26T02:36:10.465Z,5.45
2019-06-26T02:38:39.059Z,5.83
2019-06-26T02:41:07.853Z,5.42
2019-06-26T02:43:36.584Z,5.45
2019-06-26T02:46:05.479Z,5.80
2019-06-26T02:48:34.213Z,5.67
2019-06-26T02:51:02.894Z,5.17
2019-06-26T02:53:31.523Z,5.55
2019-06-26T02:56:00.249Z,5.58
2019-06-26T02:58:28.936Z,5.35
2019-06-26T03:00:57.649Z,6.20
2019-06-26T03:03:26.364Z,5.75
2019-06-26T03:05:55.093Z,5.40
2019-06-26T03:08:23.737Z,5.30
2019-06-26T03:10:52.433Z,6.05
2019-06-26T03:13:21.177Z,5.95
2019-06-26T03:15:50.852Z,5.95
2019-06-26T03:18:19.665Z,5.35
2019-06-26T03:20:51.350Z,6.30
2019-06-26T03:23:20.061Z,6.15
2019-06-26T03:25:48.773Z,5.72
2019-06-26T03:28:17.449Z,5.42
2019-06-26T03:30:52.098Z,6.33
2019-06-26T03:33:20.812Z,6.12
2019-06-26T03:35:49.551Z,5.90
2019-06-26T03:38:18.103Z,5.62
2019-06-26T03:40:49.563Z,5.65
2019-06-26T03:43:18.142Z,5.75
2019-06-26T03:45:46.789Z,6.05
2019-06-26T03:48:15.410Z,5.62
2019-06-26T03:50:44.243Z,5.67
2019-06-26T03:53:12.879Z,5.85
2019-06-26T03:55:41.983Z,5.72
2019-06-26T03:58:10.803Z,5.87
2019-06-26T04:00:43.921Z,5.92
2019-06-26T04:03:12.632Z,6.10
2019-06-26T04:05:41.314Z,6.30
2019-06-26T04:08:09.934Z,5.85
2019-06-26T04:10:38.760Z,6.10
2019-06-26T04:13:07.516Z,6.17
2019-06-26T04:15:41.883Z,6.40
2019-06-26T04:18:06.485Z,6.17
2019-06-26T04:20:35.227Z,6.35
2019-06-26T04:23:03.863Z,5.85
2019-06-26T04:25:32.511Z,5.80
2019-06-26T04:28:01.196Z,6.28
2019-06-26T04:30:29.906Z,7.12
2019-06-26T04:33:07.309Z,6.15
2019-06-26T04:35:35.953Z,6.62
2019-06-26T04:38:04.661Z,6.53
2019-06-26T04:40:33.409Z,6.80
2019-06-26T04:43:04.110Z,5.87
2019-06-26T04:45:32.764Z,6.30
2019-06-26T04:48:01.358Z,6.53
2019-06-26T04:50:30.085Z,6.37
2019-06-26T04:52:58.649Z,6.75
2019-06-26T04:55:27.388Z,6.97
2019-06-26T04:57:56.082Z,6.67
2019-06-26T05:00:25.342Z,7.25
2019-06-26T05:02:54.078Z,6.80
2019-06-26T05:05:38.616Z,6.55
2019-06-26T05:07:53.889Z,6.83
2019-06-26T05:10:22.791Z,6.35
2019-06-26T05:12:51.496Z,7.00
2019-06-26T05:15:20.134Z,6.83
2019-06-26T05:17:48.809Z,6.72
2019-06-26T05:20:17.829Z,6.60
2019-06-26T05:22:46.458Z,6.97
2019-06-26T05:25:15.396Z,7.62
2019-06-26T05:27:44.114Z,7.03
2019-06-26T05:30:14.624Z,6.83
2019-06-26T05:32:43.368Z,6.90
2019-06-26T05:35:12.573Z,6.90
2019-06-26T05:37:41.271Z,7.70
2019-06-26T05:40:11.222Z,7.50
2019-06-26T05:42:39.921Z,7.08
2019-06-26T05:45:09.032Z,7.45
2019-06-26T05:47:37.781Z,8.65
2019-06-26T05:50:09.431Z,7.33
2019-06-26T05:52:41.303Z,8.50
2019-06-26T05:55:09.122Z,7.65
2019-06-26T05:57:41.480Z,7.95
2019-06-26T06:00:10.259Z,7.95
2019-06-26T06:02:39.032Z,7.60
2019-06-26T06:05:08.544Z,7.17
2019-06-26T06:07:37.267Z,7.25
2019-06-26T06:10:07.804Z,7.33
2019-06-26T06:12:37.428Z,7.30
2019-06-26T06:15:08.010Z,7.55
2019-06-26T06:17:37.143Z,8.48
2019-06-26T06:20:08.638Z,7.85
2019-06-26T06:22:37.260Z,7.08
2019-06-26T06:25:06.377Z,7.95
2019-06-26T06:27:35.008Z,8.60
2019-06-26T06:30:07.099Z,9.05
2019-06-26T06:32:35.788Z,8.95
2019-06-26T06:35:06.297Z,11.10
2019-06-26T06:37:36.638Z,9.28
2019-06-26T06:40:08.273Z,13.40
2019-06-26T06:42:36.985Z,9.00
2019-06-26T06:45:07.452Z,9.03
2019-06-26T06:47:36.259Z,8.55
2019-06-26T06:50:06.761Z,9.65
2019-06-26T06:52:36.350Z,8.10
2019-06-26T06:55:08.633Z,8.35
2019-06-26T06:57:37.370Z,7.72
2019-06-26T07:00:07.756Z,7.37
2019-06-26T07:02:36.497Z,7.75
2019-06-26T07:05:06.879Z,7.85
2019-06-26T07:07:35.763Z,8.03
2019-06-26T07:10:06.110Z,9.30
2019-06-26T07:12:34.988Z,8.58
2019-06-26T07:15:07.491Z,9.55
2019-06-26T07:17:36.329Z,8.25
2019-06-26T07:20:06.952Z,7.70
2019-06-26T07:22:35.655Z,8.58
2019-06-26T07:25:04.982Z,8.23
2019-06-26T07:27:33.877Z,8.00
2019-06-26T07:30:02.589Z,7.87
2019-06-26T07:32:31.465Z,7.90
2019-06-26T07:35:00.184Z,7.78
2019-06-26T07:37:28.815Z,7.40
2019-06-26T07:40:01.483Z,7.70
2019-06-26T07:42:27.940Z,10.00
2019-06-26T07:44:56.588Z,8.03
2019-06-26T07:47:41.883Z,6.90
2019-06-26T07:49:55.607Z,7.80
2019-06-26T07:52:24.261Z,8.53
2019-06-26T07:54:53.052Z,8.30
2019-06-26T07:57:21.894Z,7.62
2019-06-26T07:59:50.672Z,7.47
2019-06-26T08:02:19.361Z,7.78
2019-06-26T08:04:48.027Z,7.17
2019-06-26T08:07:16.671Z,9.35
2019-06-26T08:09:45.465Z,7.62
2019-06-26T08:12:14.163Z,7.72
2019-06-26T08:14:42.905Z,7.50
2019-06-26T08:17:11.640Z,6.90
2019-06-26T08:19:40.366Z,7.33
2019-06-26T08:22:09.207Z,7.22
2019-06-26T08:24:37.972Z,7.28
2019-06-26T08:27:25.963Z,8.03
2019-06-26T08:29:54.693Z,7.70
2019-06-26T08:32:25.935Z,6.80
2019-06-26T08:34:53.802Z,7.17
2019-06-26T08:37:22.558Z,7.22
2019-06-26T08:39:51.203Z,7.00
2019-06-26T08:42:20.017Z,6.92
2019-06-26T08:44:48.764Z,7.62
2019-06-26T08:47:17.464Z,7.30
2019-06-26T08:49:46.090Z,7.87
2019-06-26T08:52:15.435Z,7.00
2019-06-26T08:54:44.100Z,7.15
2019-06-26T08:57:12.865Z,6.92
2019-06-26T08:59:41.557Z,6.72
2019-06-26T09:02:10.344Z,6.92
2019-06-26T09:04:38.989Z,6.60
2019-06-26T09:07:07.687Z,6.42
2019-06-26T09:09:36.254Z,6.85
2019-06-26T09:12:04.880Z,6.90
2019-06-26T09:14:33.536Z,6.65
2019-06-26T09:17:02.274Z,6.75
2019-06-26T09:19:30.831Z,6.85
2019-06-26T09:21:59.553Z,5.92
2019-06-26T09:24:28.130Z,6.55
2019-06-26T09:26:56.821Z,7.08
2019-06-26T09:29:25.571Z,8.30
2019-06-26T09:31:54.474Z,7.53
2019-06-26T09:34:23.185Z,7.00
2019-06-26T09:36:51.873Z,7.65
2019-06-26T09:39:20.537Z,7.85
2019-06-26T09:41:49.423Z,6.97
2019-06-26T09:44:18.101Z,7.72
2019-06-26T09:46:46.731Z,7.08
2019-06-26T09:49:15.393Z,7.12
2019-06-26T09:51:44.056Z,6.80
2019-06-26T09:54:12.837Z,6.85
2019-06-26T09:56:41.552Z,7.50
2019-06-26T09:59:10.282Z,8.63
2019-06-26T10:01:38.981Z,7.90
2019-06-26T10:04:07.630Z,6.87
2019-06-26T10:06:36.246Z,8.08
2019-06-26T10:09:07.614Z,6.70
2019-06-26T10:11:36.383Z,6.55
2019-06-26T10:14:05.909Z,6.92
2019-06-26T10:16:34.624Z,7.10
2019-06-26T10:19:10.313Z,7.15
2019-06-26T10:21:33.802Z,7.15
2019-06-26T10:24:02.549Z,5.75
2019-06-26T10:26:32.576Z,5.78
2019-06-26T10:29:01.596Z,6.22
2019-06-26T10:31:30.351Z,6.42
2019-06-26T10:33:59.177Z,5.28
2019-06-26T10:36:27.855Z,5.72
2019-06-26T10:38:56.546Z,6.12
2019-06-26T10:41:25.200Z,5.97
2019-06-26T10:43:53.931Z,6.00
2019-06-26T10:46:22.630Z,5.75
2019-06-26T10:48:51.339Z,5.25
2019-06-26T10:51:19.944Z,5.85
2019-06-26T10:53:48.517Z,6.42
2019-06-26T10:56:17.265Z,5.22
2019-06-26T10:58:45.945Z,5.95
2019-06-26T11:01:14.745Z,5.75
2019-06-26T11:03:43.471Z,5.80
2019-06-26T11:06:12.111Z,5.72
2019-06-26T11:08:40.733Z,6.03
2019-06-26T11:11:09.441Z,6.12
2019-06-26T11:13:38.173Z,5.58
2019-06-26T11:16:07.135Z,5.53
2019-06-26T11:18:35.893Z,5.30
2019-06-26T11:21:04.634Z,5.67
2019-06-26T11:23:36.396Z,6.00
2019-06-26T11:26:05.112Z,6.45
2019-06-26T11:28:33.743Z,5.65
2019-06-26T11:31:02.479Z,5.50
2019-06-26T11:33:31.152Z,5.47
2019-06-26T11:35:59.902Z,5.78
2019-06-26T11:38:28.617Z,5.90
2019-06-26T11:40:57.274Z,5.60
2019-06-26T11:43:25.980Z,5.33
2019-06-26T11:45:54.764Z,5.50
2019-06-26T11:48:23.425Z,5.03
2019-06-26T11:50:52.151Z,6.60
2019-06-26T11:53:20.867Z,5.20
2019-06-26T11:55:49.584Z,5.53
2019-06-26T11:58:18.332Z,6.17
2019-06-26T12:00:47.058Z,5.60
2019-06-26T12:03:15.694Z,6.50
2019-06-26T12:05:44.537Z,6.55
2019-06-26T12:08:13.192Z,5.95
2019-06-26T12:10:41.907Z,6.28
2019-06-26T12:13:10.579Z,6.12
2019-06-26T12:15:39.144Z,6.03
2019-06-26T12:18:07.894Z,7.22
2019-06-26T12:20:36.608Z,6.60
2019-06-26T12:23:05.497Z,6.10
2019-06-26T12:25:34.220Z,6.42
2019-06-26T12:28:02.951Z,6.72
2019-06-26T12:30:31.585Z,6.15
2019-06-26T12:33:03.440Z,6.25
2019-06-26T12:35:30.786Z,6.25
2019-06-26T12:37:59.448Z,6.78
2019-06-26T12:40:31.117Z,7.33
2019-06-26T12:42:58.472Z,6.58
2019-06-26T12:45:27.213Z,7.30
2019-06-26T12:47:56.254Z,6.70
2019-06-26T12:50:35.160Z,6.25
2019-06-26T12:52:55.534Z,6.78
2019-06-26T12:55:24.302Z,7.17
2019-06-26T12:57:53.024Z,6.58
2019-06-26T13:00:21.815Z,6.58
2019-06-26T13:02:50.604Z,6.53
2019-06-26T13:05:19.532Z,7.17
2019-06-26T13:07:48.281Z,6.25
2019-06-26T13:10:18.752Z,6.45
2019-06-26T13:12:47.486Z,6.40
2019-06-26T13:15:16.890Z,6.87
2019-06-26T13:17:45.561Z,7.00
2019-06-26T13:20:14.616Z,6.67
2019-06-26T13:22:43.225Z,7.03
2019-06-26T13:25:15.691Z,6.70
2019-06-26T13:27:42.938Z,6.75
2019-06-26T13:30:12.356Z,6.47
2019-06-26T13:32:40.993Z,6.55
2019-06-26T13:35:09.871Z,6.15
2019-06-26T13:37:38.496Z,6.42
2019-06-26T13:40:07.995Z,6.78
2019-06-26T13:42:36.717Z,7.17
2019-06-26T13:45:07.430Z,6.67
2019-06-26T13:47:36.155Z,7.12
2019-06-26T13:50:08.100Z,7.30
2019-06-26T13:52:36.799Z,7.28
2019-06-26T13:55:06.424Z,7.40
2019-06-26T13:57:35.174Z,7.12
2019-06-26T14:00:06.654Z,7.20
2019-06-26T14:02:35.256Z,7.92
2019-06-26T14:05:04.983Z,7.37
2019-06-26T14:07:33.632Z,7.05
2019-06-26T14:10:02.379Z,7.83
2019-06-26T14:12:31.031Z,6.53
2019-06-26T14:14:59.737Z,7.42
2019-06-26T14:17:28.303Z,7.40
2019-06-26T14:19:57.169Z,6.58
2019-06-26T14:22:25.737Z,6.58
2019-06-26T14:24:54.474Z,6.65
2019-06-26T14:27:23.184Z,5.75
2019-06-26T14:29:51.809Z,6.37
2019-06-26T14:32:20.516Z,6.70
2019-06-26T14:34:49.283Z,6.62
2019-06-26T14:37:17.922Z,6.42
2019-06-26T14:39:46.557Z,6.28
2019-06-26T14:42:15.187Z,6.67
2019-06-26T14:44:43.895Z,7.22
2019-06-26T14:47:12.587Z,6.78
2019-06-26T14:49:41.213Z,6.83
2019-06-26T14:52:09.938Z,6.90
2019-06-26T14:54:39.008Z,7.22
2019-06-26T14:57:07.754Z,6.80
2019-06-26T14:59:36.393Z,6.42
2019-06-26T15:02:05.118Z,6.75
2019-06-26T15:04:33.835Z,6.17
2019-06-26T15:07:03.407Z,5.92
2019-06-26T15:09:32.106Z,5.70
2019-06-26T15:12:02.330Z,5.40
2019-06-26T15:14:30.906Z,5.20
2019-06-26T15:16:59.632Z,5.55
2019-06-26T15:19:28.386Z,5.42
2019-06-26T15:21:58.691Z,5.42
2019-06-26T15:24:27.395Z,5.22
2019-06-26T15:26:56.201Z,4.30
2019-06-26T15:29:24.763Z,4.40
2019-06-26T15:31:53.467Z,4.72
2019-06-26T15:34:22.163Z,4.97
2019-06-26T15:36:50.868Z,5.08
2019-06-26T15:39:19.590Z,5.17
2019-06-26T15:41:49.920Z,5.40
2019-06-26T15:44:18.632Z,4.95
2019-06-26T15:46:47.581Z,5.60
2019-06-26T15:49:16.721Z,5.00
2019-06-26T15:51:45.408Z,4.72
2019-06-26T15:54:14.252Z,5.05
2019-06-26T15:56:43.014Z,4.92
2019-06-26T15:59:11.743Z,4.45
2019-06-26T16:01:40.463Z,4.62
2019-06-26T16:04:09.153Z,4.87
2019-06-26T16:06:37.797Z,4.78
2019-06-26T16:09:07.029Z,4.75
2019-06-26T16:11:35.713Z,4.92
2019-06-26T16:14:04.631Z,5.00
2019-06-26T16:16:34.755Z,4.83
2019-06-26T16:19:16.981Z,5.28
2019-06-26T16:21:45.689Z,5.08
2019-06-26T16:24:14.348Z,4.92
2019-06-26T16:26:43.083Z,5.00
2019-06-26T16:29:11.795Z,6.08
2019-06-26T16:31:40.503Z,5.85
2019-06-26T16:34:09.186Z,6.50
2019-06-26T16:36:37.841Z,7.28
2019-06-26T16:39:08.125Z,7.10
2019-06-26T16:41:37.064Z,7.12
2019-06-26T16:44:06.461Z,7.40
2019-06-26T16:46:35.184Z,7.45
2019-06-26T16:49:04.011Z,7.78
2019-06-26T16:51:32.635Z,6.90
2019-06-26T16:54:01.336Z,7.58
2019-06-26T16:56:30.009Z,7.90
2019-06-26T16:58:58.647Z,8.00
2019-06-26T17:01:27.267Z,7.87
2019-06-26T17:03:55.951Z,8.75
2019-06-26T17:06:24.967Z,9.25
2019-06-26T17:08:53.606Z,9.18
2019-06-26T17:11:22.347Z,9.18
2019-06-26T17:13:51.255Z,10.32
2019-06-26T17:16:19.909Z,9.98
2019-06-26T17:18:48.664Z,10.63
2019-06-26T17:21:17.384Z,10.23
2019-06-26T17:23:45.960Z,9.95
2019-06-26T17:26:14.625Z,9.58
2019-06-26T17:28:43.213Z,10.45
2019-06-26T17:31:11.930Z,10.82
2019-06-26T17:33:40.557Z,10.55
2019-06-26T17:36:09.226Z,11.78
2019-06-26T17:38:37.868Z,11.68
2019-06-26T17:41:06.618Z,12.70
2019-06-26T17:43:35.250Z,12.15
2019-06-26T17:46:03.973Z,12.40
2019-06-26T17:48:32.726Z,11.90
2019-06-26T17:51:01.493Z,11.45
2019-06-26T17:53:30.261Z,12.07
2019-06-26T17:55:58.895Z,12.05
2019-06-26T17:58:27.530Z,12.00
2019-06-26T18:00:56.093Z,11.28
2019-06-26T18:03:24.782Z,11.15
2019-06-26T18:05:53.415Z,11.68
2019-06-26T18:08:22.134Z,11.33
2019-06-26T18:10:50.895Z,11.33
2019-06-26T18:13:19.620Z,10.80
2019-06-26T18:15:48.295Z,11.03
2019-06-26T18:18:17.213Z,10.50
2019-06-26T18:20:46.104Z,8.58
2019-06-26T18:23:14.825Z,8.45
2019-06-26T18:25:53.548Z,6.78
2019-06-26T18:28:14.030Z,7.10
2019-06-26T18:30:42.949Z,6.95
2019-06-26T18:33:11.707Z,6.20
2019-06-26T18:35:40.294Z,6.17
2019-06-26T18:38:09.036Z,6.62
2019-06-26T18:40:37.709Z,5.85
2019-06-26T18:43:06.492Z,5.80
2019-06-26T18:45:35.156Z,6.58
2019-06-26T18:48:03.898Z,5.72
2019-06-26T18:50:32.766Z,6.15
2019-06-26T18:53:01.482Z,5.90
2019-06-26T18:55:30.302Z,5.90
2019-06-26T18:57:58.937Z,5.62
2019-06-26T19:00:27.674Z,6.08
2019-06-26T19:02:56.438Z,6.10
2019-06-26T19:05:25.161Z,6.10
2019-06-26T19:07:53.802Z,6.30
2019-06-26T19:10:22.475Z,6.20
2019-06-26T19:12:52.564Z,5.67
2019-06-26T19:15:21.280Z,6.22
2019-06-26T19:17:50.043Z,6.17
2019-06-26T19:20:20.112Z,6.15
2019-06-26T19:22:48.823Z,6.50
2019-06-26T19:25:17.568Z,6.42
2019-06-26T19:27:46.301Z,6.22
2019-06-26T19:30:16.615Z,6.83
2019-06-26T19:32:45.907Z,6.45
2019-06-26T19:35:21.611Z,6.67
2019-06-26T19:37:45.542Z,7.25
2019-06-26T19:40:14.483Z,6.78
2019-06-26T19:42:43.107Z,6.90
2019-06-26T19:45:12.112Z,6.10
2019-06-26T19:47:40.857Z,6.62
2019-06-26T19:50:09.793Z,7.25
2019-06-26T19:52:38.491Z,7.30
2019-06-26T19:55:07.734Z,6.67
2019-06-26T19:57:36.455Z,6.65
2019-06-26T20:00:07.725Z,6.25
2019-06-26T20:02:36.548Z,6.40
2019-06-26T20:05:06.559Z,5.67
2019-06-26T20:07:35.203Z,6.30
2019-06-26T20:10:05.541Z,6.10
2019-06-26T20:12:34.175Z,5.95
2019-06-26T20:15:03.180Z,6.83
2019-06-26T20:17:32.054Z,6.70
2019-06-26T20:20:01.079Z,6.42
2019-06-26T20:22:29.793Z,6.47
2019-06-26T20:24:58.882Z,6.50
2019-06-26T20:27:27.599Z,5.65
2019-06-26T20:29:56.314Z,6.70
2019-06-26T20:32:25.146Z,5.97
2019-06-26T20:34:53.869Z,6.37
2019-06-26T20:37:25.964Z,5.92
2019-06-26T20:39:54.589Z,6.25
2019-06-26T20:42:23.547Z,5.83
2019-06-26T20:44:54.873Z,5.40
2019-06-26T20:47:23.874Z,6.17
2019-06-26T20:49:53.619Z,5.42
2019-06-26T20:52:22.476Z,5.10
2019-06-26T20:55:00.467Z,4.70
2019-06-26T20:57:21.641Z,4.40
2019-06-26T20:59:50.325Z,4.47
2019-06-26T21:02:19.014Z,5.60
2019-06-26T21:04:47.654Z,5.22
2019-06-26T21:07:16.499Z,4.50
2019-06-26T21:09:45.431Z,3.80
2019-06-26T21:12:14.063Z,3.75
2019-06-26T21:14:42.766Z,3.65
2019-06-26T21:17:12.837Z,3.90
2019-06-26T21:19:41.526Z,3.60
2019-06-26T21:22:10.435Z,3.85
2019-06-26T21:24:39.053Z,3.40
2019-06-26T21:27:07.760Z,3.62
2019-06-26T21:29:36.466Z,3.85
2019-06-26T21:32:05.209Z,3.47
2019-06-26T21:34:33.959Z,3.77
2019-06-26T21:37:02.619Z,3.75
2019-06-26T21:39:31.221Z,3.70
2019-06-26T21:41:59.996Z,3.70
2019-06-26T21:44:28.632Z,3.85
2019-06-26T21:46:57.506Z,4.85
2019-06-26T21:49:26.206Z,4.85
2019-06-26T21:51:54.864Z,4.65
2019-06-26T21:54:23.621Z,4.03
2019-06-26T21:56:52.281Z,4.25
2019-06-26T21:59:20.926Z,4.20
2019-06-26T22:01:49.800Z,4.42
2019-06-26T22:04:18.480Z,3.83
2019-06-26T22:06:47.177Z,4.10
2019-06-26T22:09:16.599Z,3.83
2019-06-26T22:11:45.279Z,4.00
2019-06-26T22:14:13.857Z,4.05
2019-06-26T22:16:42.694Z,4.15
2019-06-26T22:19:11.321Z,3.72
2019-06-26T22:21:40.115Z,3.33
2019-06-26T22:24:09.056Z,3.60
2019-06-26T22:26:37.690Z,3.47
2019-06-26T22:29:06.393Z,3.85
2019-06-26T22:31:35.062Z,3.92
2019-06-26T22:34:03.760Z,3.80
2019-06-26T22:36:32.465Z,3.60
2019-06-26T22:39:01.234Z,3.67
2019-06-26T22:41:29.876Z,3.85
2019-06-26T22:43:58.640Z,3.25
2019-06-26T22:46:27.236Z,3.00
2019-06-26T22:48:58.257Z,3.33
2019-06-26T22:51:26.907Z,3.72
2019-06-26T22:53:58.125Z,3.62
2019-06-26T22:56:26.822Z,3.90
2019-06-26T22:58:55.528Z,4.03
2019-06-26T23:01:24.342Z,3.45
2019-06-26T23:03:53.058Z,3.27
2019-06-26T23:06:21.700Z,3.60
2019-06-26T23:08:50.494Z,3.60
2019-06-26T23:11:19.206Z,3.70
2019-06-26T23:13:47.947Z,3.65
2019-06-26T23:16:16.744Z,3.52
2019-06-26T23:18:45.405Z,3.80
2019-06-26T23:21:14.128Z,4.05
2019-06-26T23:23:42.971Z,4.00
2019-06-26T23:26:23.622Z,3.80
2019-06-26T23:28:41.894Z,3.80
2019-06-26T23:31:10.636Z,3.87
2019-06-26T23:33:39.285Z,3.65
2019-06-26T23:36:07.940Z,3.85
2019-06-26T23:38:36.621Z,3.92
2019-06-26T23:41:05.275Z,3.77
2019-06-26T23:43:34.015Z,3.87
2019-06-26T23:46:02.670Z,4.10
2019-06-26T23:48:31.538Z,3.90
2019-06-26T23:51:00.257Z,4.17
2019-06-26T23:53:28.858Z,4.30
2019-06-26T23:55:57.578Z,4.17
2019-06-26T23:58:26.136Z,4.80
